Nodari Chanturiia — UXEH — position and weather

sailwx.info

Track history (hours):
 
Tides and Currents Weather Stations Pressure Air Temp Water Temp Dewpoint Dewpoint Depression Visibility Wind Speed Wind Dir Waves Ship Positions

Nodari Chanturiia

Last reported at 2018-Jun-14 03:15 UTC. Time now 2018-Jun-21 16:29 UTC.
Position N 47°33' E 034°38'.

Length 29 m; draft 1.6 m.

Type: Tug. MMSI: 272158400.

Date/timePositionNaut miles runAvg speedWind from/ knotsBaromVisibWave heightAir tempDewpointWater temp
2018-Jun-14 03:15N 47°33' E 034°38'1 3.0
2018-Jun-14 03:00N 47°33' E 034°39'2 2.9
2018-Jun-14 02:13N 47°32' E 034°42'14 2.8
2018-Jun-13 21:22N 47°35' E 035°02'3 3.0
2018-Jun-13 20:27N 47°37' E 035°03'2 3.1
2018-Jun-13 19:53N 47°38' E 035°05'1 3.2
2018-Jun-13 19:29N 47°39' E 035°07'2 3.1
2018-Jun-13 19:00N 47°41' E 035°07'2 3.5
2018-Jun-13 18:29N 47°42' E 035°08'1 2.9
2018-Jun-13 17:59N 47°43' E 035°09'1 2.8
2018-Jun-13 17:30N 47°45' E 035°10'2 3.3
2018-Jun-13 17:00N 47°46' E 035°09'2 3.0
2018-Jun-13 16:30N 47°48' E 035°10'1 1.8
2018-Jun-13 16:00N 47°49' E 035°09'0 0.0
2018-Jun-13 15:30N 47°49' E 035°09'0 0.1
2018-Jun-13 15:00N 47°49' E 035°09'1 1.1
2018-Jun-13 14:30N 47°49' E 035°09'2 4.1
2018-Jun-13 14:00N 47°50' E 035°06'2 3.6
2018-Jun-13 13:30N 47°52' E 035°05'0 0.1
2018-Jun-13 13:00N 47°52' E 035°05'0 0.4
2018-Jun-13 12:30N 47°52' E 035°06'1 2.0
2018-Jun-13 12:00N 47°53' E 035°06'1 2.4
2018-Jun-13 11:30N 47°52' E 035°05'0 0.1
2018-Jun-13 11:00N 47°52' E 035°05'0 0.4
2018-Jun-13 10:30N 47°52' E 035°05'3 5.1
2018-Jun-13 10:00N 47°50' E 035°07'1 1.7
2018-Jun-13 09:30N 47°49' E 035°08'2 4.5
2018-Jun-13 09:00N 47°50' E 035°06'2 3.1
2018-Jun-13 08:30N 47°52' E 035°06'0 0.0
2018-Jun-13 08:00N 47°52' E 035°06'0 0.4
2018-Jun-13 07:30N 47°52' E 035°06'1 2.0
2018-Jun-13 07:00N 47°53' E 035°06'0 0.3
2018-Jun-13 06:30N 47°53' E 035°06'0 0.7
2018-Jun-13 06:00N 47°53' E 035°06'1 2.9
2018-Jun-13 05:30N 47°55' E 035°07'1 2.9
2018-Jun-13 05:00N 47°56' E 035°07'1 2.8
2018-Jun-13 04:30N 47°58' E 035°07'1 2.8
2018-Jun-13 03:59N 47°59' E 035°08'1 2.8
2018-Jun-13 03:28N 48°00' E 035°08'1 2.9
2018-Jun-13 03:00N 48°02' E 035°08'  
2018-Jun-04 17:25N 48°03' E 035°07'1 3.4
2018-Jun-04 17:00N 48°01' E 035°08'2 3.5
2018-Jun-04 16:31N 47°60' E 035°08'2 3.6
2018-Jun-04 16:01N 47°58' E 035°07'2 3.7
2018-Jun-04 15:31N 47°56' E 035°07'2 3.7
2018-Jun-04 15:00N 47°54' E 035°07'2 3.4
2018-Jun-04 14:30N 47°53' E 035°06'0 0.2
2018-Jun-04 14:00N 47°53' E 035°06'0 0.3
2018-Jun-04 13:30N 47°53' E 035°06'1 1.6
2018-Jun-04 13:00N 47°52' E 035°05'0 0.1
2018-Jun-04 12:30N 47°52' E 035°05'0 0.5
2018-Jun-04 12:00N 47°52' E 035°05'2 3.4
2018-Jun-04 11:31N 47°50' E 035°06'2 4.7
2018-Jun-04 11:00N 47°49' E 035°09'1 1.6
2018-Jun-04 10:30N 47°48' E 035°10'0 0.0
2018-Jun-04 10:00N 47°48' E 035°10'0 0.0
2018-Jun-04 09:31N 47°48' E 035°10'0 0.0
2018-Jun-04 09:00N 47°48' E 035°10'0 0.0
2018-Jun-04 08:30N 47°48' E 035°10'0 0.0
2018-Jun-04 08:00N 47°48' E 035°10'0 0.0
2018-Jun-04 07:30N 47°48' E 035°10'0 0.0
2018-Jun-04 07:00N 47°48' E 035°10'0 0.0
2018-Jun-04 06:30N 47°48' E 035°10'0 0.0
2018-Jun-04 06:00N 47°48' E 035°10'0 0.1
2018-Jun-04 05:30N 47°48' E 035°10'0 0.0
2018-Jun-04 05:01N 47°48' E 035°10'0 0.0
2018-Jun-04 04:30N 47°48' E 035°10'0 0.0
2018-Jun-04 04:01N 47°48' E 035°10'0 0.0
2018-Jun-04 03:31N 47°48' E 035°10'  
Track history (hours):
 
Tides and Currents Weather Stations Pressure Air Temp Water Temp Dewpoint Dewpoint Depression Visibility Wind Speed Wind Dir Waves Ship Positions

Nodari Chanturiia

Last reported at 2018-Jun-14 03:15 UTC. Time now 2018-Jun-21 16:29 UTC.
Position N 47°33' E 034°38'.

Length 29 m; draft 1.6 m.

Type: Tug. MMSI: 272158400.

Date/timePositionNaut miles runAvg speedWind from/ knotsBaromVisibWave heightAir tempDewpointWater temp
2018-Jun-14 03:15N 47°33' E 034°38'1 3.0
2018-Jun-14 03:00N 47°33' E 034°39'2 2.9
2018-Jun-14 02:13N 47°32' E 034°42'14 2.8
2018-Jun-13 21:22N 47°35' E 035°02'3 3.0
2018-Jun-13 20:27N 47°37' E 035°03'2 3.1
2018-Jun-13 19:53N 47°38' E 035°05'1 3.2
2018-Jun-13 19:29N 47°39' E 035°07'2 3.1
2018-Jun-13 19:00N 47°41' E 035°07'2 3.5
2018-Jun-13 18:29N 47°42' E 035°08'1 2.9
2018-Jun-13 17:59N 47°43' E 035°09'1 2.8
2018-Jun-13 17:30N 47°45' E 035°10'2 3.3
2018-Jun-13 17:00N 47°46' E 035°09'2 3.0
2018-Jun-13 16:30N 47°48' E 035°10'1 1.8
2018-Jun-13 16:00N 47°49' E 035°09'0 0.0
2018-Jun-13 15:30N 47°49' E 035°09'0 0.1
2018-Jun-13 15:00N 47°49' E 035°09'1 1.1
2018-Jun-13 14:30N 47°49' E 035°09'2 4.1
2018-Jun-13 14:00N 47°50' E 035°06'2 3.6
2018-Jun-13 13:30N 47°52' E 035°05'0 0.1
2018-Jun-13 13:00N 47°52' E 035°05'0 0.4
2018-Jun-13 12:30N 47°52' E 035°06'1 2.0
2018-Jun-13 12:00N 47°53' E 035°06'1 2.4
2018-Jun-13 11:30N 47°52' E 035°05'0 0.1
2018-Jun-13 11:00N 47°52' E 035°05'0 0.4
2018-Jun-13 10:30N 47°52' E 035°05'3 5.1
2018-Jun-13 10:00N 47°50' E 035°07'1 1.7
2018-Jun-13 09:30N 47°49' E 035°08'2 4.5
2018-Jun-13 09:00N 47°50' E 035°06'2 3.1
2018-Jun-13 08:30N 47°52' E 035°06'0 0.0
2018-Jun-13 08:00N 47°52' E 035°06'0 0.4
2018-Jun-13 07:30N 47°52' E 035°06'1 2.0
2018-Jun-13 07:00N 47°53' E 035°06'0 0.3
2018-Jun-13 06:30N 47°53' E 035°06'0 0.7
2018-Jun-13 06:00N 47°53' E 035°06'1 2.9
2018-Jun-13 05:30N 47°55' E 035°07'1 2.9
2018-Jun-13 05:00N 47°56' E 035°07'1 2.8
2018-Jun-13 04:30N 47°58' E 035°07'1 2.8
2018-Jun-13 03:59N 47°59' E 035°08'1 2.8
2018-Jun-13 03:28N 48°00' E 035°08'1 2.9
2018-Jun-13 03:00N 48°02' E 035°08'  
2018-Jun-04 17:25N 48°03' E 035°07'1 3.4
2018-Jun-04 17:00N 48°01' E 035°08'2 3.5
2018-Jun-04 16:31N 47°60' E 035°08'2 3.6
2018-Jun-04 16:01N 47°58' E 035°07'2 3.7
2018-Jun-04 15:31N 47°56' E 035°07'2 3.7
2018-Jun-04 15:00N 47°54' E 035°07'2 3.4
2018-Jun-04 14:30N 47°53' E 035°06'0 0.2
2018-Jun-04 14:00N 47°53' E 035°06'0 0.3
2018-Jun-04 13:30N 47°53' E 035°06'1 1.6
2018-Jun-04 13:00N 47°52' E 035°05'0 0.1
2018-Jun-04 12:30N 47°52' E 035°05'0 0.5
2018-Jun-04 12:00N 47°52' E 035°05'2 3.4
2018-Jun-04 11:31N 47°50' E 035°06'2 4.7
2018-Jun-04 11:00N 47°49' E 035°09'1 1.6
2018-Jun-04 10:30N 47°48' E 035°10'0 0.0
2018-Jun-04 10:00N 47°48' E 035°10'0 0.0
2018-Jun-04 09:31N 47°48' E 035°10'0 0.0
2018-Jun-04 09:00N 47°48' E 035°10'0 0.0
2018-Jun-04 08:30N 47°48' E 035°10'0 0.0
2018-Jun-04 08:00N 47°48' E 035°10'0 0.0
2018-Jun-04 07:30N 47°48' E 035°10'0 0.0
2018-Jun-04 07:00N 47°48' E 035°10'0 0.0
2018-Jun-04 06:30N 47°48' E 035°10'0 0.0
2018-Jun-04 06:00N 47°48' E 035°10'0 0.1
2018-Jun-04 05:30N 47°48' E 035°10'0 0.0
2018-Jun-04 05:01N 47°48' E 035°10'0 0.0
2018-Jun-04 04:30N 47°48' E 035°10'0 0.0
2018-Jun-04 04:01N 47°48' E 035°10'0 0.0
2018-Jun-04 03:31N 47°48' E 035°10'  

Dump ship's entire track history